createdAt,value
2017-11-28T00:00:51.698Z,99881.00
2017-11-28T00:03:26.824Z,99879.91
2017-11-28T00:06:01.799Z,99880.33
2017-11-28T00:08:36.274Z,99882.25
2017-11-28T00:11:11.636Z,99868.91
2017-11-28T00:13:46.152Z,99870.55
2017-11-28T00:16:21.084Z,99877.24
2017-11-28T00:18:55.927Z,99879.85
2017-11-28T00:21:30.655Z,99879.08
2017-11-28T00:24:05.372Z,99875.97
2017-11-28T00:26:40.224Z,99879.41
2017-11-28T00:29:15.079Z,99881.63
2017-11-28T00:31:50.197Z,99881.00
2017-11-28T00:34:25.427Z,99876.12
2017-11-28T00:37:00.051Z,99880.25
2017-11-28T00:39:34.505Z,99876.19
2017-11-28T00:42:08.785Z,99886.94
2017-11-28T00:44:44.240Z,99880.25
2017-11-28T00:47:18.495Z,99876.62
2017-11-28T00:49:53.269Z,99873.42
2017-11-28T00:52:28.176Z,99875.59
2017-11-28T00:55:02.847Z,99875.19
2017-11-28T00:57:37.368Z,99872.20
2017-11-28T01:00:12.711Z,99877.45
2017-11-28T01:02:47.600Z,99872.70
2017-11-28T01:05:22.900Z,99876.44
2017-11-28T01:07:57.828Z,99870.44
2017-11-28T01:10:32.663Z,99871.52
2017-11-28T01:13:07.404Z,99870.74
2017-11-28T01:15:41.888Z,99875.09
2017-11-28T01:18:16.317Z,99875.75
2017-11-28T01:20:51.248Z,99875.81
2017-11-28T01:23:26.511Z,99874.84
2017-11-28T01:26:01.103Z,99877.17
2017-11-28T01:28:35.604Z,99880.87
2017-11-28T01:31:10.488Z,99881.89
2017-11-28T01:33:45.386Z,99883.55
2017-11-28T01:36:20.144Z,99885.53
2017-11-28T01:38:54.872Z,99884.79
2017-11-28T01:41:29.788Z,99889.42
2017-11-28T01:44:04.363Z,99890.39
2017-11-28T01:46:39.383Z,99899.69
2017-11-28T01:49:14.262Z,99895.67
2017-11-28T01:51:49.215Z,99882.52
2017-11-28T01:54:24.255Z,99882.05
2017-11-28T01:56:59.170Z,99883.70
2017-11-28T01:59:33.829Z,99876.31
2017-11-28T02:02:08.204Z,99870.77
2017-11-28T02:04:42.571Z,99863.41
2017-11-28T02:07:17.155Z,99869.06
2017-11-28T02:09:51.871Z,99861.04
2017-11-28T02:12:26.420Z,99858.55
2017-11-28T02:15:01.288Z,99854.61
2017-11-28T02:17:35.795Z,99853.86
2017-11-28T02:20:10.573Z,99845.25
2017-11-28T02:22:45.172Z,99845.31
2017-11-28T02:25:19.360Z,99840.05
2017-11-28T02:27:54.258Z,99833.03
2017-11-28T02:30:28.751Z,99832.25
2017-11-28T02:33:03.564Z,99828.02
2017-11-28T02:35:38.374Z,99823.02
2017-11-28T02:38:13.272Z,99829.23
2017-11-28T02:40:59.224Z,99824.82
2017-11-28T02:43:34.305Z,99833.59
2017-11-28T02:46:08.418Z,99830.16
2017-11-28T02:48:44.876Z,99825.04
2017-11-28T02:51:19.479Z,99816.65
2017-11-28T02:53:54.376Z,99815.41
2017-11-28T02:56:29.095Z,99822.05
2017-11-28T02:59:03.528Z,99820.63
2017-11-28T03:01:42.632Z,99808.47
2017-11-28T03:04:17.491Z,99821.21
2017-11-28T03:06:52.352Z,99822.11
2017-11-28T03:09:47.247Z,99811.02
2017-11-28T03:12:32.632Z,99810.48
2017-11-28T03:15:08.021Z,99813.09
2017-11-28T03:17:42.348Z,99804.52
2017-11-28T03:20:18.347Z,99809.92
2017-11-28T03:23:08.548Z,99803.00
2017-11-28T03:25:42.676Z,99792.83
2017-11-28T03:28:37.867Z,99786.43
2017-11-28T03:31:16.061Z,99786.22
2017-11-28T03:33:51.791Z,99775.22
2017-11-28T03:36:26.147Z,99785.66
2017-11-28T03:39:00.971Z,99781.95
2017-11-28T03:41:35.987Z,99775.80
2017-11-28T03:44:18.927Z,99784.72
2017-11-28T03:46:53.136Z,99767.29
2017-11-28T03:49:27.219Z,99756.17
2017-11-28T03:52:02.180Z,99765.12
2017-11-28T03:54:36.751Z,99774.50
2017-11-28T03:57:11.544Z,99775.27
2017-11-28T03:59:46.419Z,99774.50
2017-11-28T04:02:20.602Z,99788.66
2017-11-28T04:04:54.882Z,99776.11
2017-11-28T04:07:29.320Z,99786.16
2017-11-28T04:10:04.160Z,99775.53
2017-11-28T04:12:39.159Z,99773.97
2017-11-28T04:15:13.992Z,99771.08
2017-11-28T04:17:49.028Z,99778.63
2017-11-28T04:20:23.449Z,99780.06
2017-11-28T04:22:58.263Z,99779.00
2017-11-28T04:25:32.579Z,99787.14
2017-11-28T04:28:07.711Z,99785.09
2017-11-28T04:30:41.816Z,99777.38
2017-11-28T04:33:16.896Z,99778.16
2017-11-28T04:35:51.868Z,99774.00
2017-11-28T04:38:26.489Z,99783.81
2017-11-28T04:41:01.211Z,99779.62
2017-11-28T04:43:36.010Z,99784.12
2017-11-28T04:46:10.834Z,99784.55
2017-11-28T04:48:45.275Z,99769.14
2017-11-28T04:51:20.575Z,99774.33
2017-11-28T04:53:55.089Z,99774.39
2017-11-28T04:56:29.695Z,99764.91
2017-11-28T04:59:04.440Z,99763.45
2017-11-28T05:01:39.349Z,99771.77
2017-11-28T05:04:13.939Z,99766.27
2017-11-28T05:06:48.683Z,99766.27
2017-11-28T05:09:23.555Z,99766.38
2017-11-28T05:11:58.423Z,99750.53
2017-11-28T05:14:33.187Z,99753.92
2017-11-28T05:17:07.402Z,99750.32
2017-11-28T05:19:42.254Z,99760.20
2017-11-28T05:22:17.238Z,99761.12
2017-11-28T05:24:52.075Z,99751.12
2017-11-28T05:27:26.772Z,99761.17
2017-11-28T05:30:01.423Z,99757.37
2017-11-28T05:32:35.911Z,99757.34
2017-11-28T05:35:11.185Z,99756.50
2017-11-28T05:37:45.354Z,99754.46
2017-11-28T05:40:19.586Z,99747.84
2017-11-28T05:42:53.974Z,99747.20
2017-11-28T05:45:28.824Z,99745.95
2017-11-28T05:48:03.635Z,99753.31
2017-11-28T05:50:38.490Z,99758.78
2017-11-28T05:53:13.327Z,99760.48
2017-11-28T05:55:48.291Z,99755.13
2017-11-28T05:58:23.069Z,99761.47
2017-11-28T06:01:08.498Z,99765.53
2017-11-28T06:03:42.549Z,99772.31
2017-11-28T06:06:17.461Z,99762.19
2017-11-28T06:08:52.319Z,99756.20
2017-11-28T06:11:26.798Z,99768.41
2017-11-28T06:14:01.564Z,99764.46
2017-11-28T06:16:36.234Z,99775.37
2017-11-28T06:19:10.834Z,99768.97
2017-11-28T06:21:44.747Z,99764.46
2017-11-28T06:24:18.501Z,99756.01
2017-11-28T06:26:52.650Z,99767.97
2017-11-28T06:29:27.141Z,99763.06
2017-11-28T06:32:01.582Z,99762.81
2017-11-28T06:34:35.633Z,99772.57
2017-11-28T06:37:10.578Z,99774.09
2017-11-28T06:39:44.699Z,99774.16
2017-11-28T06:42:19.950Z,99774.94
2017-11-28T06:44:54.202Z,99769.16
2017-11-28T06:47:29.066Z,99777.61
2017-11-28T06:50:03.983Z,99765.52
2017-11-28T06:52:38.542Z,99776.14
2017-11-28T06:55:12.722Z,99775.58
2017-11-28T06:57:47.449Z,99778.53
2017-11-28T07:00:21.901Z,99780.86
2017-11-28T07:02:55.793Z,99791.84
2017-11-28T07:05:30.765Z,99781.02
2017-11-28T07:08:05.626Z,99775.24
2017-11-28T07:10:49.907Z,99786.49
2017-11-28T07:13:24.237Z,99798.08
2017-11-28T07:15:59.033Z,99799.88
2017-11-28T07:18:33.966Z,99806.28
2017-11-28T07:21:08.666Z,99802.22
2017-11-28T07:23:43.409Z,99814.55
2017-11-28T07:26:18.251Z,99805.88
2017-11-28T07:28:53.121Z,99806.57
2017-11-28T07:31:27.947Z,99806.82
2017-11-28T07:34:02.799Z,99808.47
2017-11-28T07:36:37.775Z,99808.31
2017-11-28T07:39:12.738Z,99804.12
2017-11-28T07:41:47.742Z,99817.08
2017-11-28T07:44:22.300Z,99809.80
2017-11-28T07:46:57.205Z,99808.09
2017-11-28T07:49:32.041Z,99807.38
2017-11-28T07:52:06.234Z,99810.45
2017-11-28T07:54:40.894Z,99818.69
2017-11-28T07:57:15.735Z,99821.55
2017-11-28T07:59:50.686Z,99851.83
2017-11-28T08:02:25.474Z,99823.58
2017-11-28T08:05:00.303Z,99827.89
2017-11-28T08:07:35.032Z,99812.36
2017-11-28T08:10:09.781Z,99815.69
2017-11-28T08:12:44.617Z,99821.74
2017-11-28T08:15:19.132Z,99835.48
2017-11-28T08:17:53.681Z,99833.68
2017-11-28T08:20:28.470Z,99820.19
2017-11-28T08:23:03.147Z,99826.34
2017-11-28T08:25:37.637Z,99828.64
2017-11-28T08:28:12.448Z,99817.85
2017-11-28T08:30:46.983Z,99821.15
2017-11-28T08:33:21.834Z,99824.66
2017-11-28T08:35:55.770Z,99819.19
2017-11-28T08:38:30.594Z,99833.34
2017-11-28T08:41:05.312Z,99831.72
2017-11-28T08:43:40.094Z,99811.33
2017-11-28T08:46:14.874Z,99829.55
2017-11-28T08:48:49.477Z,99825.09
2017-11-28T08:51:24.250Z,99842.20
2017-11-28T08:53:59.034Z,99840.92
2017-11-28T08:56:33.670Z,99828.95
2017-11-28T08:59:08.490Z,99825.24
2017-11-28T09:01:43.249Z,99825.13
2017-11-28T09:04:18.486Z,99834.64
2017-11-28T09:06:54.193Z,99838.25
2017-11-28T09:09:28.782Z,99832.03
2017-11-28T09:12:03.755Z,99831.41
2017-11-28T09:14:38.791Z,99831.50
2017-11-28T09:17:13.480Z,99827.08
2017-11-28T09:19:48.157Z,99829.08
2017-11-28T09:22:22.994Z,99837.22
2017-11-28T09:24:57.810Z,99846.86
2017-11-28T09:27:32.628Z,99833.92
2017-11-28T09:30:07.327Z,99823.91
2017-11-28T09:32:42.101Z,99824.59
2017-11-28T09:35:16.321Z,99834.89
2017-11-28T09:37:51.076Z,99829.85
2017-11-28T09:40:25.877Z,99835.47
2017-11-28T09:43:00.926Z,99842.16
2017-11-28T09:45:35.049Z,99832.43
2017-11-28T09:48:10.049Z,99829.08
2017-11-28T09:50:44.714Z,99830.12
2017-11-28T09:53:19.521Z,99826.16
2017-11-28T09:55:54.218Z,99825.03
2017-11-28T09:58:29.015Z,99817.63
2017-11-28T10:01:03.791Z,99810.09
2017-11-28T10:03:38.638Z,99822.86
2017-11-28T10:06:13.506Z,99829.13
2017-11-28T10:08:47.970Z,99834.36
2017-11-28T10:11:22.448Z,99829.70
2017-11-28T10:13:57.382Z,99832.47
2017-11-28T10:16:32.278Z,99836.27
2017-11-28T10:19:06.831Z,99839.03
2017-11-28T10:21:41.221Z,99834.19
2017-11-28T10:24:16.061Z,99826.51
2017-11-28T10:26:50.874Z,99829.74
2017-11-28T10:29:25.641Z,99835.52
2017-11-28T10:32:00.180Z,99822.61
2017-11-28T10:34:34.893Z,99839.27
2017-11-28T10:37:09.745Z,99827.50
2017-11-28T10:39:44.476Z,99832.28
2017-11-28T10:42:19.183Z,99833.79
2017-11-28T10:44:54.119Z,99827.52
2017-11-28T10:47:28.871Z,99826.63
2017-11-28T10:50:03.684Z,99827.36
2017-11-28T10:52:38.108Z,99828.47
2017-11-28T10:55:13.032Z,99829.14
2017-11-28T10:57:47.859Z,99831.59
2017-11-28T11:00:22.664Z,99828.61
2017-11-28T11:02:57.511Z,99835.24
2017-11-28T11:05:32.467Z,99834.77
2017-11-28T11:08:07.535Z,99826.67
2017-11-28T11:10:41.937Z,99824.48
2017-11-28T11:13:16.727Z,99826.83
2017-11-28T11:15:50.784Z,99831.69
2017-11-28T11:18:25.594Z,99833.72
2017-11-28T11:21:00.636Z,99834.33
2017-11-28T11:23:35.298Z,99829.20
2017-11-28T11:26:10.031Z,99814.01
2017-11-28T11:28:44.783Z,99811.19
2017-11-28T11:31:20.115Z,99815.43
2017-11-28T11:33:54.672Z,99815.66
2017-11-28T11:36:29.303Z,99807.91
2017-11-28T11:39:03.167Z,99810.12
2017-11-28T11:41:37.832Z,99810.87
2017-11-28T11:44:12.696Z,99822.12
2017-11-28T11:46:47.415Z,99812.39
2017-11-28T11:49:22.315Z,99809.92
2017-11-28T11:51:57.056Z,99815.05
2017-11-28T11:54:31.816Z,99808.14
2017-11-28T11:57:06.543Z,99817.81
2017-11-28T11:59:41.416Z,99813.22
2017-11-28T12:02:15.978Z,99818.14
2017-11-28T12:04:51.305Z,99821.20
2017-11-28T12:07:25.946Z,99823.11
2017-11-28T12:10:00.627Z,99817.08
2017-11-28T12:12:35.408Z,99812.39
2017-11-28T12:15:10.452Z,99820.94
2017-11-28T12:17:45.375Z,99822.72
2017-11-28T12:20:20.200Z,99816.55
2017-11-28T12:22:55.035Z,99818.42
2017-11-28T12:25:29.867Z,99811.80
2017-11-28T12:28:03.974Z,99810.28
2017-11-28T12:30:38.442Z,99809.85
2017-11-28T12:33:13.357Z,99813.70
2017-11-28T12:35:48.371Z,99812.30
2017-11-28T12:38:23.229Z,99806.87
2017-11-28T12:40:57.844Z,99807.17
2017-11-28T12:43:32.387Z,99809.98
2017-11-28T12:46:07.115Z,99809.78
2017-11-28T12:48:42.018Z,99804.42
2017-11-28T12:51:16.800Z,99813.13
2017-11-28T12:53:51.548Z,99804.55
2017-11-28T12:56:26.254Z,99799.43
2017-11-28T12:59:00.992Z,99808.45
2017-11-28T13:01:35.947Z,99806.94
2017-11-28T13:04:10.523Z,99818.02
2017-11-28T13:06:45.427Z,99804.22
2017-11-28T13:09:20.259Z,99807.19
2017-11-28T13:11:55.131Z,99819.61
2017-11-28T13:14:29.268Z,99817.22
2017-11-28T13:17:04.025Z,99827.28
2017-11-28T13:19:39.256Z,99825.35
2017-11-28T13:22:13.828Z,99818.95
2017-11-28T13:24:48.606Z,99815.30
2017-11-28T13:27:23.235Z,99815.20
2017-11-28T13:29:57.790Z,99822.23
2017-11-28T13:32:32.586Z,99814.83
2017-11-28T13:35:07.351Z,99814.40
2017-11-28T13:37:42.358Z,99813.13
2017-11-28T13:40:17.085Z,99813.13
2017-11-28T13:42:52.310Z,99810.69
2017-11-28T13:45:26.478Z,99816.25
2017-11-28T13:48:01.220Z,99814.41
2017-11-28T13:50:36.294Z,99816.19
2017-11-28T13:53:11.019Z,99818.86
2017-11-28T13:55:45.347Z,99805.02
2017-11-28T13:58:20.211Z,99816.95
2017-11-28T14:00:54.624Z,99826.70
2017-11-28T14:03:29.707Z,99815.34
2017-11-28T14:06:04.348Z,99818.03
2017-11-28T14:08:39.543Z,99817.72
2017-11-28T14:11:14.678Z,99821.17
2017-11-28T14:13:49.459Z,99820.27
2017-11-28T14:16:24.355Z,99822.91
2017-11-28T14:18:58.895Z,99819.36
2017-11-28T14:21:38.967Z,99818.77
2017-11-28T14:24:22.831Z,99824.35
2017-11-28T14:27:00.720Z,99826.09
2017-11-28T14:29:46.083Z,99826.22
2017-11-28T14:32:25.827Z,99830.60
2017-11-28T14:35:00.605Z,99826.35
2017-11-28T14:37:34.579Z,99829.27
2017-11-28T14:40:08.632Z,99823.30
2017-11-28T14:42:44.283Z,99830.41
2017-11-28T14:45:22.728Z,99831.71
2017-11-28T14:47:56.704Z,99833.52
2017-11-28T14:56:36.831Z,99838.37
2017-11-28T14:59:16.702Z,99845.19
2017-11-28T15:01:51.509Z,99833.21
2017-11-28T15:04:28.692Z,99833.64
2017-11-28T15:07:03.896Z,99839.66
2017-11-28T15:09:44.082Z,99838.06
2017-11-28T15:15:32.848Z,99848.81
2017-11-28T15:18:12.774Z,99845.98
2017-11-28T15:20:51.420Z,99842.76
2017-11-28T15:23:27.586Z,99846.91
2017-11-28T15:26:22.835Z,99842.02
2017-11-28T15:28:57.859Z,99848.66
2017-11-28T15:31:32.470Z,99854.89
2017-11-28T15:34:07.487Z,99851.13
2017-11-28T15:36:41.793Z,99844.44
2017-11-28T15:39:16.669Z,99847.99
2017-11-28T15:41:51.793Z,99848.09
2017-11-28T15:44:26.501Z,99850.64
2017-11-28T15:47:01.219Z,99852.11
2017-11-28T15:49:35.978Z,99852.58
2017-11-28T15:52:11.006Z,99855.59
2017-11-28T15:54:45.698Z,99860.32
2017-11-28T15:57:20.429Z,99861.56
2017-11-28T15:59:55.457Z,99859.17
2017-11-28T16:02:30.043Z,99858.65
2017-11-28T16:05:04.682Z,99860.52
2017-11-28T16:07:39.345Z,99860.70
2017-11-28T16:10:14.183Z,99854.36
2017-11-28T16:12:48.862Z,99859.11
2017-11-28T16:15:23.260Z,99857.13
2017-11-28T16:17:58.175Z,99856.56
2017-11-28T16:20:32.979Z,99866.16
2017-11-28T16:23:07.659Z,99851.30
2017-11-28T16:25:42.238Z,99862.83
2017-11-28T16:28:17.366Z,99867.24
2017-11-28T16:30:52.570Z,99871.63
2017-11-28T16:33:27.495Z,99862.48
2017-11-28T16:36:02.178Z,99867.33
2017-11-28T16:38:36.703Z,99863.50
2017-11-28T16:41:11.502Z,99873.67
2017-11-28T16:43:46.071Z,99879.91
2017-11-28T16:46:20.614Z,99868.47
2017-11-28T16:48:55.310Z,99877.89
2017-11-28T16:51:30.077Z,99873.38
2017-11-28T16:54:04.339Z,99868.12
2017-11-28T16:56:39.120Z,99869.64
2017-11-28T16:59:13.731Z,99874.86
2017-11-28T17:01:48.482Z,99865.57
2017-11-28T17:04:23.301Z,99862.09
2017-11-28T17:06:57.590Z,99864.63
2017-11-28T17:09:32.150Z,99865.91
2017-11-28T17:12:06.909Z,99870.72
2017-11-28T17:14:41.625Z,99861.70
2017-11-28T17:17:16.741Z,99862.41
2017-11-28T17:19:50.985Z,99853.91
2017-11-28T17:22:25.785Z,99866.50
2017-11-28T17:25:00.197Z,99863.95
2017-11-28T17:27:34.541Z,99860.91
2017-11-28T17:30:09.366Z,99858.12
2017-11-28T17:32:43.761Z,99863.32
2017-11-28T17:35:18.597Z,99867.45
2017-11-28T17:37:53.150Z,99866.42
2017-11-28T17:40:27.929Z,99859.46
2017-11-28T17:43:02.678Z,99851.45
2017-11-28T17:45:37.213Z,99861.73
2017-11-28T17:48:11.819Z,99861.73
2017-11-28T17:50:46.754Z,99861.13
2017-11-28T17:53:21.678Z,99861.19
2017-11-28T17:55:56.465Z,99864.73
2017-11-28T17:58:30.961Z,99863.77
2017-11-28T18:01:05.596Z,99862.76
2017-11-28T18:03:40.420Z,99862.06
2017-11-28T18:06:15.054Z,99862.50
2017-11-28T18:08:50.094Z,99864.61
2017-11-28T18:11:24.621Z,99862.52
2017-11-28T18:13:59.433Z,99856.61
2017-11-28T18:16:34.066Z,99856.87
2017-11-28T18:19:08.950Z,99862.14
2017-11-28T18:21:43.725Z,99864.09
2017-11-28T18:24:18.190Z,99867.08
2017-11-28T18:26:52.898Z,99866.05
2017-11-28T18:29:27.898Z,99867.27
2017-11-28T18:32:02.361Z,99861.44
2017-11-28T18:34:37.052Z,99857.23
2017-11-28T18:37:11.577Z,99865.44
2017-11-28T18:39:46.043Z,99861.50
2017-11-28T18:42:20.833Z,99860.40
2017-11-28T18:44:55.346Z,99869.25
2017-11-28T18:47:29.862Z,99865.30
2017-11-28T18:50:04.797Z,99870.70
2017-11-28T18:52:39.218Z,99879.66
2017-11-28T18:55:13.965Z,99871.34
2017-11-28T18:57:48.655Z,99875.08
2017-11-28T19:00:25.813Z,99872.88
2017-11-28T19:03:00.035Z,99869.19
2017-11-28T19:05:35.032Z,99872.94
2017-11-28T19:08:09.699Z,99873.48
2017-11-28T19:10:44.389Z,99871.80
2017-11-28T19:13:19.428Z,99872.23
2017-11-28T19:15:54.954Z,99874.02
2017-11-28T19:18:29.955Z,99879.29
2017-11-28T19:21:04.753Z,99878.83
2017-11-28T19:23:39.460Z,99885.20
2017-11-28T19:26:14.185Z,99880.80
2017-11-28T19:28:48.569Z,99876.05
2017-11-28T19:31:23.341Z,99879.67
2017-11-28T19:33:58.193Z,99881.76
2017-11-28T19:36:32.977Z,99880.85
2017-11-28T19:39:07.650Z,99879.43
2017-11-28T19:41:42.394Z,99885.78
2017-11-28T19:44:17.092Z,99885.87
2017-11-28T19:46:51.685Z,99882.30
2017-11-28T19:49:26.334Z,99882.05
2017-11-28T19:52:00.951Z,99885.50
2017-11-28T19:54:35.913Z,99885.61
2017-11-28T19:57:10.606Z,99886.05
2017-11-28T19:59:45.385Z,99883.95
2017-11-28T20:02:20.447Z,99887.76
2017-11-28T20:04:55.647Z,99884.53
2017-11-28T20:07:30.166Z,99879.69
2017-11-28T20:10:04.971Z,99884.21
2017-11-28T20:12:39.902Z,99877.66
2017-11-28T20:15:14.469Z,99887.81
2017-11-28T20:17:49.226Z,99890.88
2017-11-28T20:20:23.651Z,99897.23
2017-11-28T20:22:58.461Z,99896.20
2017-11-28T20:25:33.270Z,99891.36
2017-11-28T20:28:08.061Z,99895.36
2017-11-28T20:30:42.746Z,99896.81
2017-11-28T20:33:16.922Z,99892.64
2017-11-28T20:35:51.749Z,99894.02
2017-11-28T20:38:26.498Z,99882.97
2017-11-28T20:41:01.129Z,99890.91
2017-11-28T20:43:35.932Z,99889.95
2017-11-28T20:46:10.410Z,99887.94
2017-11-28T20:48:44.994Z,99884.73
2017-11-28T20:51:20.166Z,99890.39
2017-11-28T20:53:55.254Z,99888.73
2017-11-28T20:56:30.095Z,99887.28
2017-11-28T20:59:04.677Z,99883.97
2017-11-28T21:01:39.208Z,99884.14
2017-11-28T21:04:14.157Z,99889.29
2017-11-28T21:06:48.833Z,99893.48
2017-11-28T21:09:23.521Z,99888.76
2017-11-28T21:11:58.113Z,99888.76
2017-11-28T21:14:32.769Z,99882.80
2017-11-28T21:17:07.626Z,99884.89
2017-11-28T21:19:42.237Z,99880.45
2017-11-28T21:22:16.967Z,99886.49
2017-11-28T21:24:51.820Z,99883.42
2017-11-28T21:27:26.631Z,99887.20
2017-11-28T21:30:01.454Z,99892.75
2017-11-28T21:32:36.081Z,99891.63
2017-11-28T21:35:10.898Z,99887.90
2017-11-28T21:37:45.452Z,99885.73
2017-11-28T21:40:20.110Z,99881.78
2017-11-28T21:42:54.715Z,99882.67
2017-11-28T21:45:29.343Z,99882.13
2017-11-28T21:48:04.014Z,99880.16
2017-11-28T21:50:38.777Z,99876.98
2017-11-28T21:53:13.534Z,99873.03
2017-11-28T21:55:48.458Z,99877.67
2017-11-28T21:58:23.253Z,99869.09
2017-11-28T22:00:58.346Z,99861.30
2017-11-28T22:03:33.062Z,99874.76
2017-11-28T22:06:07.821Z,99881.75
2017-11-28T22:08:42.545Z,99878.45
2017-11-28T22:11:17.128Z,99877.11
2017-11-28T22:13:51.826Z,99876.20
2017-11-28T22:16:26.575Z,99879.73
2017-11-28T22:19:01.285Z,99878.92
2017-11-28T22:21:35.838Z,99881.47
2017-11-28T22:24:10.568Z,99875.28
2017-11-28T22:26:45.350Z,99887.08
2017-11-28T22:29:20.478Z,99887.03
2017-11-28T22:31:55.409Z,99888.67
2017-11-28T22:34:29.882Z,99887.64
2017-11-28T22:37:04.758Z,99886.56
2017-11-28T22:39:39.453Z,99890.23
2017-11-28T22:42:14.134Z,99895.25
2017-11-28T22:44:49.252Z,99895.30
2017-11-28T22:47:24.022Z,99889.14
2017-11-28T22:49:58.793Z,99881.56
2017-11-28T22:52:33.710Z,99887.33
2017-11-28T22:55:08.402Z,99894.30
2017-11-28T22:57:43.226Z,99891.58
2017-11-28T23:00:17.960Z,99887.42
2017-11-28T23:02:53.124Z,99890.72
2017-11-28T23:05:27.542Z,99888.95
2017-11-28T23:08:02.373Z,99897.36
2017-11-28T23:10:37.046Z,99894.88
2017-11-28T23:13:11.743Z,99889.80
2017-11-28T23:15:46.351Z,99899.83
2017-11-28T23:18:21.205Z,99893.47
2017-11-28T23:20:55.885Z,99896.90
2017-11-28T23:23:30.655Z,99898.75
2017-11-28T23:26:05.390Z,99895.00
2017-11-28T23:28:40.020Z,99896.22
2017-11-28T23:31:14.833Z,99903.45
2017-11-28T23:33:49.785Z,99891.02
2017-11-28T23:36:24.607Z,99902.20
2017-11-28T23:38:59.439Z,99899.92
2017-11-28T23:41:34.252Z,99891.27
2017-11-28T23:44:09.158Z,99898.56
2017-11-28T23:46:44.190Z,99897.11
2017-11-28T23:49:18.869Z,99881.45
2017-11-28T23:51:53.491Z,99885.63
2017-11-28T23:54:28.700Z,99892.69
2017-11-28T23:57:03.316Z,99887.33
2017-11-28T23:59:37.857Z,99888.80
